Time;durP1;ratioP1;P1;durP2;ratioP2;P2;SDS_P1;SDS_P2;PMS_P1;PMS_P2;Temp;Humidity;BMP_temperature;BMP_pressure;BME280_temperature;BME280_humidity;BME280_pressure;Samples;Min_cycle;Max_cycle;Signal;HPM_P1;HPM_P2
2021/03/17 00:01:05;;;;;;;0.90;0.50;;;5.00;99.90;;;;;;5077465;28;20431;-60
2021/03/17 00:03:32;;;;;;;0.70;0.40;;;4.90;99.90;;;;;;5077295;28;20418;-61
2021/03/17 00:05:58;;;;;;;0.90;0.50;;;5.00;99.90;;;;;;5077755;28;20431;-60
2021/03/17 00:08:26;;;;;;;0.80;0.50;;;5.00;99.90;;;;;;5078079;28;20415;-60
2021/03/17 00:10:53;;;;;;;0.90;0.50;;;5.00;99.90;;;;;;5077510;28;20524;-60
2021/03/17 00:13:21;;;;;;;0.80;0.50;;;5.00;99.90;;;;;;5077503;28;20849;-59
2021/03/17 00:15:47;;;;;;;0.80;0.40;;;5.00;99.90;;;;;;5077711;28;20521;-60
2021/03/17 00:18:14;;;;;;;0.70;0.40;;;5.00;99.90;;;;;;5078076;28;20420;-60
2021/03/17 00:20:41;;;;;;;0.90;0.50;;;4.90;99.90;;;;;;5078256;28;20431;-60
2021/03/17 00:23:07;;;;;;;0.80;0.40;;;4.90;99.90;;;;;;5078135;28;20423;-59
2021/03/17 00:25:37;;;;;;;0.70;0.40;;;5.00;99.90;;;;;;5077983;28;20434;-59
2021/03/17 00:28:04;;;;;;;1.70;0.40;;;5.00;99.90;;;;;;5077691;28;20419;-59
2021/03/17 00:30:31;;;;;;;0.73;0.40;;;5.00;99.90;;;;;;5077292;28;20431;-59
2021/03/17 00:32:59;;;;;;;0.95;0.50;;;4.90;99.90;;;;;;5077366;28;20420;-59
2021/03/17 00:35:26;;;;;;;0.90;0.50;;;4.90;99.90;;;;;;5076152;28;20798;-59
2021/03/17 00:37:52;;;;;;;0.80;0.50;;;5.00;99.90;;;;;;5076137;28;20419;-60
2021/03/17 00:40:19;;;;;;;0.90;0.50;;;4.90;99.90;;;;;;5077095;28;20431;-60
2021/03/17 00:42:46;;;;;;;0.82;0.50;;;4.90;99.90;;;;;;5076165;28;20428;-59
2021/03/17 00:45:13;;;;;;;0.65;0.40;;;4.90;99.90;;;;;;5076656;28;20465;-60
2021/03/17 00:47:40;;;;;;;0.90;0.50;;;4.80;99.90;;;;;;5076067;28;20426;-60
2021/03/17 00:50:09;;;;;;;0.80;0.45;;;4.70;99.90;;;;;;5075272;28;20842;-59
2021/03/17 00:52:36;;;;;;;0.70;0.40;;;4.80;99.90;;;;;;5077091;28;20426;-59
2021/03/17 00:55:02;;;;;;;0.70;0.40;;;4.90;99.90;;;;;;5077418;28;20449;-59
2021/03/17 00:57:29;;;;;;;0.70;0.40;;;5.00;99.90;;;;;;5075957;28;20511;-59
2021/03/17 00:59:57;;;;;;;1.42;0.40;;;5.20;99.90;;;;;;5073996;28;20424;-59
2021/03/17 01:02:23;;;;;;;0.70;0.50;;;5.20;99.90;;;;;;5076695;28;20739;-59
2021/03/17 01:04:49;;;;;;;0.90;0.50;;;5.30;99.90;;;;;;5077162;28;20431;-58
2021/03/17 01:07:19;;;;;;;1.10;0.60;;;5.10;99.90;;;;;;5077068;28;20423;-58
2021/03/17 01:09:46;;;;;;;1.00;0.50;;;5.00;99.90;;;;;;5076762;28;20496;-59
2021/03/17 01:12:13;;;;;;;0.80;0.50;;;4.80;99.90;;;;;;5075679;28;20491;-59
2021/03/17 01:14:41;;;;;;;1.40;0.60;;;4.70;99.90;;;;;;5075249;28;20890;-59
2021/03/17 01:17:08;;;;;;;0.80;0.50;;;4.70;99.90;;;;;;5075494;28;20719;-60
2021/03/17 01:19:36;;;;;;;1.00;0.60;;;4.60;99.90;;;;;;5075219;28;20426;-59
2021/03/17 01:22:02;;;;;;;0.90;0.50;;;4.50;99.90;;;;;;5075072;28;20431;-60
2021/03/17 01:24:29;;;;;;;1.10;0.60;;;4.60;99.90;;;;;;5075372;28;20494;-59
2021/03/17 01:26:55;;;;;;;1.10;0.60;;;4.60;99.90;;;;;;5075714;28;20579;-59
2021/03/17 01:29:22;;;;;;;0.93;0.55;;;4.60;99.90;;;;;;5076512;28;20857;-60
2021/03/17 01:31:48;;;;;;;1.08;0.60;;;4.60;99.90;;;;;;5076554;28;20781;-60
2021/03/17 01:34:16;;;;;;;1.00;0.70;;;4.50;99.90;;;;;;5076541;28;20914;-59
2021/03/17 01:36:42;;;;;;;1.20;0.70;;;4.50;99.90;;;;;;5076892;28;20840;-59
2021/03/17 01:39:09;;;;;;;1.13;0.70;;;4.60;99.90;;;;;;5076629;28;20416;-59
2021/03/17 01:41:35;;;;;;;1.00;0.60;;;4.70;99.90;;;;;;5076588;28;20469;-59
2021/03/17 01:44:02;;;;;;;1.00;0.60;;;4.60;99.90;;;;;;5076420;28;20734;-59
2021/03/17 01:46:28;;;;;;;1.00;0.50;;;4.80;99.90;;;;;;5076260;28;20504;-59
2021/03/17 01:48:56;;;;;;;2.00;0.60;;;4.90;99.90;;;;;;5076344;28;20802;-59
2021/03/17 01:51:24;;;;;;;1.00;0.60;;;4.90;99.90;;;;;;5076188;28;20438;-59
2021/03/17 01:53:51;;;;;;;1.00;0.60;;;4.90;99.90;;;;;;5076304;28;20466;-60
2021/03/17 01:56:18;;;;;;;0.98;0.60;;;4.90;99.90;;;;;;5076501;28;20893;-60
2021/03/17 01:58:44;;;;;;;1.15;0.60;;;4.90;99.90;;;;;;5075335;28;20430;-60
2021/03/17 02:01:11;;;;;;;1.00;0.60;;;4.90;99.90;;;;;;5075100;28;20758;-59
2021/03/17 02:03:37;;;;;;;1.00;0.60;;;4.80;99.90;;;;;;5074010;28;20771;-60
2021/03/17 02:06:05;;;;;;;1.00;0.60;;;4.70;99.90;;;;;;5073809;28;20431;-59
2021/03/17 02:08:35;;;;;;;1.00;0.60;;;4.80;99.90;;;;;;5074410;28;20416;-59
2021/03/17 02:11:02;;;;;;;1.10;0.60;;;5.00;99.90;;;;;;5074072;28;20769;-59
2021/03/17 02:13:55;;;;;;;1.00;0.60;;;5.00;99.90;;;;;;5074283;28;20474;-59
2021/03/17 02:16:27;;;;;;;0.87;0.50;;;4.90;99.90;;;;;;5075179;28;20593;-60
2021/03/17 02:19:10;;;;;;;1.00;0.60;;;5.00;99.90;;;;;;5075569;28;20418;-60
2021/03/17 02:22:12;;;;;;;1.60;0.60;;;5.10;99.90;;;;;;5075992;28;20471;-60
2021/03/17 02:24:45;;;;;;;0.90;0.50;;;5.20;99.90;;;;;;5075553;28;20416;-60
2021/03/17 02:27:30;;;;;;;0.97;0.50;;;5.30;99.90;;;;;;5075295;28;20415;-60
2021/03/17 02:30:33;;;;;;;0.90;0.50;;;5.30;99.90;;;;;;5075499;28;20434;-59
2021/03/17 02:33:36;;;;;;;0.80;0.40;;;5.30;99.90;;;;;;5075413;28;20511;-59
2021/03/17 02:36:06;;;;;;;0.90;0.50;;;5.10;99.90;;;;;;5075245;28;20501;-59
2021/03/17 02:38:37;;;;;;;0.80;0.50;;;4.80;99.90;;;;;;5075201;28;20427;-59
2021/03/17 02:41:05;;;;;;;0.98;0.50;;;4.80;99.90;;;;;;5075435;28;20435;-59
2021/03/17 02:43:34;;;;;;;0.90;0.50;;;4.90;99.90;;;;;;5075092;28;20424;-59
2021/03/17 02:46:11;;;;;;;0.80;0.40;;;5.00;99.90;;;;;;5075677;28;20427;-59
2021/03/17 02:48:42;;;;;;;0.67;0.50;;;4.90;99.90;;;;;;5073994;28;20445;-59
2021/03/17 02:51:16;;;;;;;0.80;0.40;;;4.90;99.90;;;;;;5073649;28;20426;-59
2021/03/17 02:53:46;;;;;;;0.90;0.50;;;5.10;99.90;;;;;;5074761;28;20454;-59
2021/03/17 02:56:14;;;;;;;1.08;0.40;;;5.20;99.90;;;;;;5075073;28;20434;-59
2021/03/17 02:58:44;;;;;;;0.90;0.40;;;5.20;99.90;;;;;;5075231;28;20434;-59
2021/03/17 03:01:15;;;;;;;0.80;0.40;;;5.10;99.90;;;;;;5075115;28;20471;-59
2021/03/17 03:03:43;;;;;;;0.70;0.40;;;5.10;99.90;;;;;;5075318;28;20895;-59
2021/03/17 03:06:11;;;;;;;1.02;0.50;;;5.00;99.90;;;;;;5075223;28;20696;-59
2021/03/17 03:08:40;;;;;;;0.80;0.50;;;4.80;99.90;;;;;;5073889;28;20420;-59
2021/03/17 03:11:08;;;;;;;0.80;0.40;;;4.80;99.90;;;;;;5073058;28;20430;-59
2021/03/17 03:13:37;;;;;;;0.60;0.40;;;4.90;99.90;;;;;;5074233;28;20517;-59
2021/03/17 03:16:05;;;;;;;0.70;0.40;;;5.00;99.90;;;;;;5073923;28;20427;-59
2021/03/17 03:18:34;;;;;;;0.80;0.40;;;5.00;99.90;;;;;;5073899;28;20483;-59
2021/03/17 03:21:01;;;;;;;0.63;0.40;;;4.90;99.90;;;;;;5074742;28;20491;-59
2021/03/17 03:23:29;;;;;;;0.65;0.40;;;4.70;99.90;;;;;;5074555;28;20427;-60
2021/03/17 03:25:57;;;;;;;0.70;0.40;;;4.70;99.90;;;;;;5074846;28;20435;-59
2021/03/17 03:28:25;;;;;;;0.80;0.40;;;4.90;99.90;;;;;;5074238;28;20423;-59
2021/03/17 03:30:54;;;;;;;0.60;0.40;;;4.80;99.90;;;;;;5075136;28;20507;-60
2021/03/17 03:33:21;;;;;;;0.80;0.50;;;4.80;99.90;;;;;;5074728;28;20495;-59
2021/03/17 03:35:49;;;;;;;0.80;0.40;;;4.80;99.90;;;;;;5074775;28;20434;-59
2021/03/17 03:38:17;;;;;;;1.00;0.40;;;4.80;99.90;;;;;;5074906;28;20420;-59
2021/03/17 03:40:44;;;;;;;0.80;0.40;;;4.80;99.90;;;;;;5074752;28;20997;-59
2021/03/17 03:43:11;;;;;;;0.70;0.50;;;4.90;99.90;;;;;;5074329;28;20494;-59
2021/03/17 03:45:39;;;;;;;0.60;0.40;;;5.00;99.90;;;;;;5074366;28;20428;-59
2021/03/17 03:48:07;;;;;;;0.70;0.40;;;4.90;99.90;;;;;;5074901;28;20490;-60
2021/03/17 03:50:36;;;;;;;0.65;0.40;;;5.00;99.90;;;;;;5074428;28;20530;-60
2021/03/17 03:53:13;;;;;;;0.60;0.40;;;4.80;99.90;;;;;;5074747;28;20419;-59
2021/03/17 03:55:51;;;;;;;0.70;0.40;;;4.80;99.90;;;;;;5074821;28;20462;-60
2021/03/17 03:58:28;;;;;;;0.70;0.40;;;4.90;99.90;;;;;;5074674;28;20455;-60
2021/03/17 04:01:02;;;;;;;0.80;0.40;;;4.80;99.90;;;;;;5074776;28;20780;-60
2021/03/17 04:03:32;;;;;;;0.70;0.40;;;4.90;99.90;;;;;;5074266;28;20502;-58
2021/03/17 04:05:59;;;;;;;0.80;0.50;;;4.90;99.90;;;;;;5073849;28;20881;-57
2021/03/17 04:08:26;;;;;;;1.00;0.50;;;4.80;99.90;;;;;;5074335;28;20412;-58
2021/03/17 04:10:56;;;;;;;0.98;0.57;;;4.60;99.90;;;;;;5074401;28;20483;-58
2021/03/17 04:13:23;;;;;;;0.90;0.50;;;4.50;99.90;;;;;;5074217;28;20884;-58
2021/03/17 04:15:52;;;;;;;1.00;0.60;;;4.50;99.90;;;;;;5074429;28;20427;-58
2021/03/17 04:18:20;;;;;;;1.30;0.70;;;4.50;99.90;;;;;;5073769;28;20480;-58
2021/03/17 04:20:51;;;;;;;1.00;0.60;;;4.70;99.90;;;;;;5074792;28;20431;-58
2021/03/17 04:23:17;;;;;;;0.90;0.50;;;4.60;99.90;;;;;;5077951;28;20419;-58
2021/03/17 04:25:47;;;;;;;1.00;0.60;;;4.50;99.90;;;;;;5077851;28;20433;-58
2021/03/17 04:28:18;;;;;;;1.00;0.60;;;4.30;99.90;;;;;;5077767;28;20420;-58
2021/03/17 04:30:45;;;;;;;0.93;0.60;;;4.30;99.90;;;;;;5078084;28;20477;-58
2021/03/17 04:33:13;;;;;;;1.33;0.70;;;4.50;99.90;;;;;;5077637;28;20430;-58
2021/03/17 04:35:40;;;;;;;1.40;0.50;;;4.60;99.90;;;;;;5077499;28;20423;-58
2021/03/17 04:38:09;;;;;;;1.10;0.70;;;4.60;99.90;;;;;;5077648;28;20441;-58
2021/03/17 04:40:36;;;;;;;1.13;0.70;;;4.80;99.90;;;;;;5077938;28;20700;-58
2021/03/17 04:43:04;;;;;;;1.10;0.70;;;4.90;99.90;;;;;;5077339;28;20730;-58
2021/03/17 04:45:31;;;;;;;0.97;0.67;;;4.90;99.90;;;;;;5077736;28;20850;-58
2021/03/17 04:48:00;;;;;;;1.15;0.80;;;5.00;99.90;;;;;;5077323;28;20843;-59
2021/03/17 04:50:28;;;;;;;1.10;0.70;;;5.00;99.90;;;;;;5076858;28;20565;-59
2021/03/17 04:52:55;;;;;;;1.20;0.80;;;5.10;99.90;;;;;;5077270;28;20416;-59
2021/03/17 04:55:22;;;;;;;1.60;0.80;;;5.00;99.90;;;;;;5077519;28;20432;-59
2021/03/17 04:57:50;;;;;;;1.70;0.80;;;5.00;99.90;;;;;;5077400;28;20722;-59
2021/03/17 05:00:20;;;;;;;1.73;1.10;;;5.00;99.90;;;;;;5076115;28;20435;-59
2021/03/17 05:02:57;;;;;;;2.20;0.90;;;5.00;99.90;;;;;;5075495;28;20835;-59
2021/03/17 05:05:24;;;;;;;1.20;0.90;;;5.00;99.90;;;;;;5075872;28;20551;-59
2021/03/17 05:07:53;;;;;;;1.40;0.85;;;5.00;99.90;;;;;;5074776;28;20420;-59
2021/03/17 05:10:20;;;;;;;1.35;0.80;;;4.90;99.90;;;;;;5074683;28;20437;-58
2021/03/17 05:12:47;;;;;;;1.95;0.95;;;5.00;99.90;;;;;;5074737;28;20496;-58
2021/03/17 05:15:14;;;;;;;1.30;0.90;;;4.90;99.90;;;;;;5072929;28;20427;-60
2021/03/17 05:17:41;;;;;;;1.50;0.90;;;4.80;99.90;;;;;;5072218;28;20536;-57
2021/03/17 05:20:11;;;;;;;1.50;0.93;;;4.80;99.90;;;;;;5072876;28;20476;-58
2021/03/17 05:22:41;;;;;;;2.03;1.00;;;4.70;99.90;;;;;;5073748;28;20446;-58
2021/03/17 05:25:10;;;;;;;1.50;0.90;;;4.60;99.90;;;;;;5074450;28;20420;-57
2021/03/17 05:27:38;;;;;;;1.80;1.10;;;4.60;99.90;;;;;;5075056;28;20430;-54
2021/03/17 05:30:07;;;;;;;1.48;0.90;;;4.50;99.90;;;;;;5075150;28;20918;-54
2021/03/17 05:32:34;;;;;;;1.80;0.90;;;4.60;99.90;;;;;;5075116;28;20424;-56
2021/03/17 05:35:05;;;;;;;2.50;1.00;;;4.90;99.90;;;;;;5075289;28;20432;-54
2021/03/17 05:37:33;;;;;;;2.00;1.10;;;5.10;99.90;;;;;;5075739;28;20510;-55
2021/03/17 05:39:59;;;;;;;1.98;1.30;;;4.80;99.90;;;;;;5075005;28;20830;-56
2021/03/17 05:42:26;;;;;;;1.90;1.10;;;4.60;99.90;;;;;;5076414;28;20514;-58
2021/03/17 05:44:54;;;;;;;2.10;1.13;;;4.60;99.90;;;;;;5076209;28;20827;-56
2021/03/17 05:47:22;;;;;;;2.83;1.10;;;4.70;99.90;;;;;;5076277;28;20447;-56
2021/03/17 05:49:49;;;;;;;1.87;1.10;;;5.00;99.90;;;;;;5075488;28;20434;-57
2021/03/17 05:52:17;;;;;;;2.10;1.10;;;5.10;99.90;;;;;;5075841;28;20499;-57
2021/03/17 05:54:44;;;;;;;2.40;1.30;;;5.40;99.90;;;;;;5075593;28;20488;-58
2021/03/17 05:57:12;;;;;;;2.45;1.15;;;5.50;99.90;;;;;;5075508;28;20794;-57
2021/03/17 05:59:39;;;;;;;1.88;1.10;;;5.70;99.90;;;;;;5075400;28;20456;-57
2021/03/17 06:02:08;;;;;;;2.70;1.30;;;5.60;99.90;;;;;;5074763;28;20431;-57
2021/03/17 06:04:35;;;;;;;3.08;1.45;;;5.20;99.90;;;;;;5072637;28;20599;-57
2021/03/17 06:07:02;;;;;;;2.45;1.20;;;5.10;99.90;;;;;;5072920;28;20515;-57
2021/03/17 06:09:30;;;;;;;1.98;1.35;;;5.20;99.90;;;;;;5073671;28;20419;-56
2021/03/17 06:11:59;;;;;;;3.20;1.38;;;5.40;99.90;;;;;;5072624;28;20508;-57
2021/03/17 06:14:28;;;;;;;2.55;1.30;;;5.60;99.90;;;;;;5072791;28;20510;-57
2021/03/17 06:16:59;;;;;;;3.00;1.67;;;5.50;99.90;;;;;;5072298;28;20424;-57
2021/03/17 06:19:27;;;;;;;2.70;1.65;;;5.40;99.90;;;;;;5068114;28;20433;-56
2021/03/17 06:21:55;;;;;;;3.00;1.40;;;5.20;99.90;;;;;;5054496;28;20465;-57
2021/03/17 06:24:21;;;;;;;3.72;1.60;;;5.00;99.90;;;;;;5055148;28;20457;-58
2021/03/17 06:26:48;;;;;;;2.58;1.55;;;5.20;99.90;;;;;;5067873;28;21053;-57
2021/03/17 06:29:16;;;;;;;3.25;1.58;;;5.40;99.90;;;;;;5071669;28;20427;-55
2021/03/17 06:31:42;;;;;;;2.65;1.55;;;5.70;99.90;;;;;;5058946;28;20435;-57
2021/03/17 06:34:09;;;;;;;2.78;1.40;;;5.90;99.90;;;;;;5064406;28;20561;-57
2021/03/17 06:36:47;;;;;;;3.08;1.70;;;6.00;99.90;;;;;;5070232;28;20439;-57
2021/03/17 06:39:14;;;;;;;2.63;1.60;;;6.20;99.90;;;;;;5050521;28;20425;-57
2021/03/17 06:41:50;;;;;;;1.90;1.30;;;6.40;99.90;;;;;;5061070;28;20432;-58
2021/03/17 06:44:21;;;;;;;3.97;1.40;;;6.30;99.90;;;;;;5052596;28;20429;-59
2021/03/17 06:47:18;;;;;;;3.10;1.50;;;6.20;99.90;;;;;;5068778;28;20514;-59
2021/03/17 06:49:46;;;;;;;2.55;1.30;;;6.30;99.90;;;;;;5050241;28;20905;-59
2021/03/17 06:52:33;;;;;;;3.13;1.60;;;6.30;99.90;;;;;;5066403;28;20419;-57
2021/03/17 06:55:11;;;;;;;3.60;1.30;;;6.30;99.90;;;;;;5052815;28;20520;-56
2021/03/17 06:57:40;;;;;;;3.83;1.40;;;6.30;99.90;;;;;;5063129;28;20523;-58
2021/03/17 07:00:30;;;;;;;2.50;1.17;;;6.30;99.90;;;;;;5063444;28;20530;-58
2021/03/17 07:02:59;;;;;;;2.60;1.33;;;6.00;99.90;;;;;;5067769;28;20538;-56
2021/03/17 07:05:41;;;;;;;2.53;1.45;;;5.80;99.90;;;;;;5068961;28;20473;-57
2021/03/17 07:08:10;;;;;;;3.08;1.50;;;5.90;99.90;;;;;;5057229;28;20433;-58
2021/03/17 07:10:40;;;;;;;2.92;1.35;;;6.00;99.90;;;;;;5061037;28;20431;-58
2021/03/17 07:13:07;;;;;;;8.80;4.70;;;6.20;99.90;;;;;;5066161;28;20424;-58
2021/03/17 07:15:37;;;;;;;2.30;1.43;;;6.30;99.90;;;;;;5062350;28;20736;-58
2021/03/17 07:18:17;;;;;;;2.80;1.48;;;6.40;99.90;;;;;;5071670;28;20427;-58
2021/03/17 07:20:47;;;;;;;3.05;1.67;;;6.20;99.90;;;;;;5059961;28;20523;-59
2021/03/17 07:23:25;;;;;;;2.95;1.30;;;6.10;99.90;;;;;;5061314;28;20524;-58
2021/03/17 07:26:22;;;;;;;2.45;1.10;;;5.60;99.90;;;;;;5058413;28;20482;-59
2021/03/17 07:29:11;;;;;;;2.25;1.30;;;5.70;99.90;;;;;;5022744;28;20485;-58
2021/03/17 07:31:40;;;;;;;2.25;1.20;;;5.80;99.90;;;;;;5058794;28;20520;-58
2021/03/17 07:34:19;;;;;;;2.85;1.48;;;6.00;99.90;;;;;;5063486;28;20425;-58
2021/03/17 07:36:47;;;;;;;2.47;1.30;;;6.00;99.90;;;;;;5066363;28;20798;-57
2021/03/17 07:39:17;;;;;;;2.25;1.20;;;6.00;99.90;;;;;;5053682;28;20425;-58
2021/03/17 07:41:44;;;;;;;2.50;1.20;;;6.00;99.90;;;;;;5053786;28;20535;-58
2021/03/17 07:44:13;;;;;;;2.55;1.20;;;6.00;99.90;;;;;;5061197;28;20428;-57
2021/03/17 07:46:42;;;;;;;2.58;1.20;;;5.80;99.90;;;;;;5059612;28;20744;-57
2021/03/17 07:49:10;;;;;;;3.88;1.70;;;5.50;99.90;;;;;;5065210;28;20692;-57
2021/03/17 07:51:40;;;;;;;18.40;13.17;;;5.60;99.90;;;;;;5054069;28;20425;-58
2021/03/17 07:54:14;;;;;;;5.25;2.95;;;5.70;99.90;;;;;;5060224;28;20411;-58
2021/03/17 07:56:43;;;;;;;3.53;1.65;;;5.80;99.90;;;;;;5063265;28;20439;-58
2021/03/17 07:59:10;;;;;;;2.58;1.40;;;5.80;99.90;;;;;;5058119;28;20445;-58
2021/03/17 08:01:37;;;;;;;3.13;1.40;;;6.00;99.90;;;;;;5071640;28;20435;-59
2021/03/17 08:04:06;;;;;;;3.45;1.40;;;5.90;99.90;;;;;;5065715;28;20431;-58
2021/03/17 08:06:32;;;;;;;1.90;1.10;;;6.20;99.90;;;;;;5056717;28;20436;-59
2021/03/17 08:08:59;;;;;;;1.90;0.90;;;6.40;99.90;;;;;;5058264;28;20523;-58
2021/03/17 08:11:27;;;;;;;1.60;0.90;;;6.70;99.90;;;;;;5066165;28;20439;-59
2021/03/17 08:13:56;;;;;;;6.03;1.00;;;6.80;99.90;;;;;;5068399;28;20483;-58
2021/03/17 08:16:25;;;;;;;2.25;1.00;;;7.10;99.90;;;;;;5070546;28;20432;-59
2021/03/17 08:18:52;;;;;;;1.45;0.90;;;7.00;99.90;;;;;;5057014;28;20515;-59
2021/03/17 08:21:44;;;;;;;1.70;0.90;;;7.00;99.90;;;;;;5056522;28;20930;-59
2021/03/17 08:24:12;;;;;;;1.38;0.70;;;6.60;99.90;;;;;;5059172;28;20425;-59
2021/03/17 08:26:46;;;;;;;2.70;0.67;;;6.70;99.90;;;;;;5064017;28;20530;-59
2021/03/17 08:29:15;;;;;;;1.20;0.70;;;7.40;99.90;;;;;;5067155;28;20426;-58
2021/03/17 08:31:49;;;;;;;1.50;0.70;;;7.70;99.90;;;;;;5060274;28;20517;-59
2021/03/17 08:34:24;;;;;;;1.67;0.80;;;8.20;99.90;;;;;;5068067;28;20422;-59
2021/03/17 08:36:52;;;;;;;4.07;0.90;;;8.10;99.90;;;;;;5066824;28;20436;-59
2021/03/17 08:39:42;;;;;;;2.22;1.27;;;8.40;99.90;;;;;;5059306;28;20432;-59
2021/03/17 08:42:09;;;;;;;2.20;1.08;;;8.50;99.90;;;;;;5061696;28;20438;-59
2021/03/17 08:44:48;;;;;;;2.90;1.20;;;8.10;99.90;;;;;;5068987;28;20488;-59
2021/03/17 08:47:28;;;;;;;1.77;0.90;;;7.80;99.90;;;;;;5071579;28;20438;-59
2021/03/17 08:49:57;;;;;;;2.57;1.20;;;7.40;99.90;;;;;;5056473;28;20445;-58
2021/03/17 08:52:38;;;;;;;3.00;1.10;;;7.50;99.90;;;;;;5056583;28;20413;-60
2021/03/17 08:55:11;;;;;;;3.75;1.00;;;7.60;99.90;;;;;;5054592;28;20429;-59
2021/03/17 08:58:02;;;;;;;2.40;1.00;;;7.20;99.90;;;;;;5063745;28;20423;-59
2021/03/17 09:00:51;;;;;;;1.77;1.00;;;7.20;99.90;;;;;;5065266;28;20435;-59
2021/03/17 09:03:44;;;;;;;2.72;1.40;;;7.60;99.90;;;;;;5065916;28;20659;-59
2021/03/17 09:06:14;;;;;;;10.02;5.63;;;8.00;99.90;;;;;;5036428;28;20886;-59
2021/03/17 09:09:07;;;;;;;2.10;1.00;;;8.10;99.90;;;;;;5062814;28;20912;-59
2021/03/17 09:11:54;;;;;;;1.35;0.80;;;7.90;99.90;;;;;;5046418;28;20620;-60
2021/03/17 09:14:24;;;;;;;1.90;0.85;;;7.10;99.90;;;;;;5064691;28;20421;-59
2021/03/17 09:17:27;;;;;;;2.30;0.90;;;7.20;99.90;;;;;;5067185;28;20451;-57
2021/03/17 09:20:29;;;;;;;1.52;0.80;;;7.20;99.90;;;;;;5073273;28;20432;-57
2021/03/17 09:23:17;;;;;;;1.48;0.90;;;7.10;99.90;;;;;;5066149;28;20445;-55
2021/03/17 09:25:49;;;;;;;4.93;2.50;;;7.30;99.90;;;;;;5065675;28;20520;-57
2021/03/17 09:28:23;;;;;;;1.30;0.80;;;7.30;99.90;;;;;;5063987;28;20420;-56
2021/03/17 09:30:52;;;;;;;2.22;0.70;;;7.50;99.90;;;;;;5067156;28;20438;-56
2021/03/17 09:33:22;;;;;;;1.10;0.60;;;7.50;99.90;;;;;;5055771;28;20512;-57
2021/03/17 09:35:52;;;;;;;1.10;0.80;;;7.60;99.90;;;;;;5059041;28;20431;-56
2021/03/17 09:38:21;;;;;;;1.00;0.60;;;7.40;99.90;;;;;;5064076;28;20436;-57
2021/03/17 09:40:55;;;;;;;1.50;0.80;;;7.40;99.90;;;;;;5072141;28;20450;-58
2021/03/17 09:43:34;;;;;;;1.85;0.70;;;7.50;99.90;;;;;;5061063;28;20811;-59
2021/03/17 09:46:17;;;;;;;1.00;0.60;;;7.50;99.90;;;;;;5059819;28;20735;-59
2021/03/17 09:48:43;;;;;;;1.10;0.60;;;7.80;99.90;;;;;;5063060;28;20427;-57
2021/03/17 09:51:16;;;;;;;1.30;0.60;;;8.00;99.90;;;;;;5067203;28;20433;-58
2021/03/17 09:53:44;;;;;;;1.88;0.70;;;8.20;99.90;;;;;;5060835;28;20425;-59
2021/03/17 09:56:12;;;;;;;1.20;0.70;;;8.30;99.90;;;;;;5060376;28;20886;-58
2021/03/17 09:58:39;;;;;;;1.55;0.70;;;8.40;99.90;;;;;;5063424;28;20951;-58
2021/03/17 10:01:09;;;;;;;2.20;0.60;;;8.60;99.90;;;;;;5062330;28;20469;-59
2021/03/17 10:03:36;;;;;;;1.50;0.60;;;8.90;99.90;;;;;;5055115;28;20445;-59
2021/03/17 10:06:02;;;;;;;0.90;0.60;;;8.70;99.90;;;;;;5062489;28;20423;-59
2021/03/17 10:08:33;;;;;;;1.20;0.60;;;8.80;99.90;;;;;;5055533;28;20429;-60
2021/03/17 10:11:00;;;;;;;1.15;0.60;;;8.90;99.90;;;;;;5057732;28;20516;-59
2021/03/17 10:13:34;;;;;;;1.20;0.60;;;9.30;99.90;;;;;;5067042;28;20453;-59
2021/03/17 10:16:00;;;;;;;1.55;0.50;;;9.30;99.90;;;;;;5060704;28;20516;-60
2021/03/17 10:18:27;;;;;;;1.30;0.60;;;9.30;99.90;;;;;;5065758;28;20526;-59
2021/03/17 10:20:55;;;;;;;1.50;0.50;;;8.90;99.90;;;;;;5056433;28;20417;-59
2021/03/17 10:23:21;;;;;;;0.90;0.60;;;8.90;99.90;;;;;;5066236;28;20442;-60
2021/03/17 10:25:48;;;;;;;1.40;0.60;;;9.00;99.90;;;;;;5064738;28;20415;-60
2021/03/17 10:28:16;;;;;;;2.10;0.60;;;9.10;99.90;;;;;;5072342;28;20436;-60
2021/03/17 10:30:49;;;;;;;1.27;0.60;;;9.20;99.90;;;;;;5065479;28;20533;-60
2021/03/17 10:33:20;;;;;;;0.90;0.60;;;9.30;99.90;;;;;;5058751;28;20431;-60
2021/03/17 10:35:47;;;;;;;1.00;0.50;;;9.50;99.90;;;;;;5066083;28;20423;-61
2021/03/17 10:38:14;;;;;;;1.17;0.50;;;9.70;99.90;;;;;;5061343;28;20516;-61
2021/03/17 10:40:41;;;;;;;0.90;0.50;;;9.90;99.90;;;;;;5067531;28;20460;-60
2021/03/17 10:43:09;;;;;;;2.20;0.50;;;10.10;99.90;;;;;;5060088;28;20497;-63
2021/03/17 10:45:45;;;;;;;1.00;0.50;;;9.70;99.90;;;;;;5064351;28;20424;-62
2021/03/17 10:48:16;;;;;;;0.98;0.50;;;9.60;99.90;;;;;;5070069;28;20432;-63
2021/03/17 10:50:46;;;;;;;0.73;0.50;;;9.50;99.90;;;;;;5065159;28;20530;-63
2021/03/17 10:53:18;;;;;;;0.90;0.50;;;9.60;99.90;;;;;;5067139;28;20435;-62
2021/03/17 10:55:45;;;;;;;0.80;0.50;;;9.30;99.90;;;;;;5035277;28;20466;-62
2021/03/17 10:58:15;;;;;;;0.90;0.50;;;9.60;99.90;;;;;;5070468;28;20430;-62
2021/03/17 11:00:44;;;;;;;1.20;0.40;;;10.00;99.90;;;;;;5071610;28;20438;-62
2021/03/17 11:03:28;;;;;;;1.00;0.50;;;10.20;99.90;;;;;;5053427;28;20440;-64
2021/03/17 11:06:12;;;;;;;0.87;0.50;;;9.70;99.90;;;;;;5067995;28;20514;-64
2021/03/17 11:08:39;;;;;;;0.80;0.45;;;9.20;99.90;;;;;;5061286;28;20428;-62
2021/03/17 11:11:07;;;;;;;0.70;0.40;;;9.00;99.90;;;;;;5068738;28;20522;-63
2021/03/17 11:13:39;;;;;;;0.70;0.50;;;8.80;99.90;;;;;;5059330;28;20425;-58
2021/03/17 11:16:09;;;;;;;1.40;0.50;;;8.20;99.90;;;;;;5062707;28;20423;-58
2021/03/17 11:18:39;;;;;;;8.57;6.50;;;7.90;99.90;;;;;;5056665;28;20423;-58
2021/03/17 11:21:15;;;;;;;6.78;4.20;;;8.00;99.90;;;;;;5054443;28;20439;-58
2021/03/17 11:23:42;;;;;;;1.60;0.70;;;8.30;99.90;;;;;;5069852;28;20800;-59
2021/03/17 11:26:19;;;;;;;0.90;0.60;;;8.40;99.90;;;;;;5065134;28;20530;-58
2021/03/17 11:28:46;;;;;;;1.10;0.60;;;8.30;99.90;;;;;;5059499;28;20567;-59
2021/03/17 11:31:23;;;;;;;1.10;0.60;;;8.20;99.90;;;;;;5053904;28;20872;-59
2021/03/17 11:33:50;;;;;;;1.10;0.60;;;8.20;99.90;;;;;;5063972;28;20487;-59
2021/03/17 11:36:18;;;;;;;0.70;0.43;;;8.30;99.90;;;;;;5051858;28;20516;-59
2021/03/17 11:38:47;;;;;;;1.20;0.70;;;8.00;99.90;;;;;;5050762;28;20523;-58
2021/03/17 11:41:13;;;;;;;1.00;0.60;;;7.60;99.90;;;;;;5066264;28;20513;-59
2021/03/17 11:43:43;;;;;;;0.90;0.57;;;7.30;99.90;;;;;;5070412;28;20459;-60
2021/03/17 11:46:09;;;;;;;1.58;0.70;;;7.40;99.90;;;;;;5050890;28;20440;-59
2021/03/17 11:48:38;;;;;;;1.65;0.70;;;7.40;99.90;;;;;;5051110;28;20431;-58
2021/03/17 11:51:11;;;;;;;1.23;0.80;;;7.40;99.90;;;;;;5061536;28;20441;-58
2021/03/17 11:53:37;;;;;;;1.40;0.70;;;7.50;99.90;;;;;;5065871;28;20466;-59
2021/03/17 11:56:06;;;;;;;1.45;0.73;;;7.70;99.90;;;;;;5061979;28;20860;-60
2021/03/17 11:58:33;;;;;;;2.05;0.80;;;7.50;99.90;;;;;;5051693;28;20440;-59
2021/03/17 12:01:04;;;;;;;9.57;5.77;;;7.40;99.90;;;;;;5059808;28;20437;-58
2021/03/17 12:03:30;;;;;;;3.45;1.50;;;7.20;99.90;;;;;;5053431;28;20519;-58
2021/03/17 12:05:58;;;;;;;3.20;1.20;;;7.00;99.90;;;;;;5051981;28;20439;-58
2021/03/17 12:08:24;;;;;;;2.30;1.20;;;7.00;99.90;;;;;;5051928;28;20507;-58
2021/03/17 12:10:52;;;;;;;2.20;1.10;;;7.00;99.90;;;;;;5051773;28;20478;-57
2021/03/17 12:13:23;;;;;;;3.13;1.00;;;7.10;99.90;;;;;;5050093;28;20426;-58
2021/03/17 12:15:50;;;;;;;2.80;1.10;;;7.10;99.90;;;;;;5032973;28;20425;-58
2021/03/17 12:18:20;;;;;;;2.67;1.10;;;7.00;99.90;;;;;;5049874;28;20576;-57
2021/03/17 12:20:47;;;;;;;3.10;1.10;;;6.80;99.90;;;;;;5051754;28;20745;-57
2021/03/17 12:23:14;;;;;;;5.15;1.40;;;6.20;99.90;;;;;;5052584;28;20473;-58
2021/03/17 12:25:45;;;;;;;3.35;1.23;;;6.10;99.90;;;;;;5064647;28;20526;-58
2021/03/17 12:28:12;;;;;;;2.83;1.20;;;6.20;99.90;;;;;;5070663;28;20522;-58
2021/03/17 12:30:38;;;;;;;2.00;0.90;;;6.30;99.90;;;;;;5071836;28;20428;-58
2021/03/17 12:33:05;;;;;;;2.63;1.20;;;6.30;99.90;;;;;;5072517;28;20419;-58
2021/03/17 12:35:32;;;;;;;2.40;0.90;;;6.30;99.90;;;;;;5072088;28;20762;-58
2021/03/17 12:38:01;;;;;;;1.50;0.90;;;6.20;99.90;;;;;;5072478;28;20735;-59
2021/03/17 12:40:30;;;;;;;2.30;1.20;;;6.20;99.90;;;;;;5073100;28;20463;-59
2021/03/17 12:42:56;;;;;;;2.10;1.10;;;6.00;99.90;;;;;;5074038;28;20431;-58
2021/03/17 12:45:25;;;;;;;2.60;1.30;;;5.60;99.90;;;;;;5076251;28;20431;-58
2021/03/17 12:47:55;;;;;;;1.52;0.90;;;5.80;99.90;;;;;;5075455;28;20422;-58
2021/03/17 12:50:23;;;;;;;2.30;1.30;;;5.90;99.90;;;;;;5076618;28;20506;-59
2021/03/17 12:52:50;;;;;;;2.43;0.90;;;5.90;99.90;;;;;;5076185;28;20490;-57
2021/03/17 12:55:20;;;;;;;4.50;0.90;;;6.10;99.90;;;;;;5075099;28;20427;-56
2021/03/17 12:57:47;;;;;;;1.60;1.00;;;6.20;99.90;;;;;;5074628;28;20424;-58
2021/03/17 13:00:19;;;;;;;2.13;1.23;;;6.30;99.90;;;;;;5075174;28;20851;-57
2021/03/17 13:02:47;;;;;;;1.85;0.98;;;5.80;99.90;;;;;;5060377;28;20436;-57
2021/03/17 13:05:17;;;;;;;1.80;1.00;;;5.50;99.90;;;;;;5074488;28;20423;-58
2021/03/17 13:07:43;;;;;;;1.70;0.90;;;5.60;99.90;;;;;;5059465;28;20480;-58
2021/03/17 13:10:13;;;;;;;1.70;0.90;;;5.70;99.90;;;;;;5058512;28;20699;-58
2021/03/17 13:12:44;;;;;;;2.20;0.90;;;5.50;99.90;;;;;;5072289;28;20424;-58
2021/03/17 13:15:13;;;;;;;2.00;0.90;;;5.40;99.90;;;;;;5073848;28;20975;-58